WetterOnline ( https://www.wetteronline.de )

Wetter aktuell Fehmarn

Aktuelles Wetter: Westermarkelsdorf (9m)

6-stündlich | Neueste Meldungen
Ortszeit Temperatur Wetter
So, 23.06. 20:00 18.4° C fast wolkenlos
So, 23.06. 14:00 17.5° C leicht bewölkt
So, 23.06. 8:00 15.4° C bedeckt
So, 23.06. 2:00 15.1° C leicht bewölkt
Sa, 22.06. 20:00 17.1° C leicht bewölkt
Sa, 22.06. 14:00 16.8° C bewölkt
Sa, 22.06. 8:00 15.8° C bedeckt
Sa, 22.06. 2:00 16.2° C bewölkt
Ortszeit Temperatur Wetter
Mo, 24.06. 0:00 17.0° C fast wolkenlos
So, 23.06. 23:50 17.0° C fast wolkenlos
So, 23.06. 23:40 17.1° C leicht bewölkt
So, 23.06. 23:30 17.2° C leicht bewölkt
So, 23.06. 23:20 17.2° C leicht bewölkt
So, 23.06. 23:10 17.2° C fast wolkenlos
So, 23.06. 23:00 17.3° C leicht bewölkt
So, 23.06. 22:30 17.4° C leicht bewölkt
So, 23.06. 22:00 17.5° C leicht bewölkt
So, 23.06. 21:30 17.7° C bedeckt
So, 23.06. 21:00 18.0° C wolkig
Ortszeit Relative Feuchte Sichtweite
So, 23.06. 20:00 81% 55 km
So, 23.06. 14:00 84% 29 km
So, 23.06. 8:00 90% 25 km
So, 23.06. 2:00 86% 35 km
Sa, 22.06. 20:00 79% 50 km
Sa, 22.06. 14:00 85% 55 km
Sa, 22.06. 8:00 93% 55 km
Sa, 22.06. 2:00 100% 9 km
Ortszeit Relative Feuchte Sichtweite
Mo, 24.06. 0:00 87% 40 km
So, 23.06. 23:50 87% -
So, 23.06. 23:40 86% -
So, 23.06. 23:30 83% 50 km
So, 23.06. 23:20 83% -
So, 23.06. 23:10 84% -
So, 23.06. 23:00 84% 45 km
So, 23.06. 22:30 83% 45 km
So, 23.06. 22:00 81% 50 km
So, 23.06. 21:30 82% 45 km
So, 23.06. 21:00 81% 50 km
Ortszeit Niederschlagsmenge Niederschlagsart
So, 23.06. 20:00 0.0 l/m2 in 12 Std. -
So, 23.06. 14:00 0.0 l/m2 in 6 Std. -
So, 23.06. 8:00 0.0 l/m2 in 12 Std. -
So, 23.06. 2:00 0.0 l/m2 in 6 Std. -
Sa, 22.06. 20:00 0.1 l/m2 in 12 Std. -
Sa, 22.06. 14:00 0.1 l/m2 in 6 Std. Sprühregen
Sa, 22.06. 8:00 8 l/m2 in 12 Std. Regen
Sa, 22.06. 2:00 8 l/m2 in 6 Std. Regen
Ortszeit Niederschlagsmenge Niederschlagsart
Mo, 24.06. 0:00 0.0 l/m2 in 1 Std. -
So, 23.06. 23:50 keine Meldung -
So, 23.06. 23:40 keine Meldung -
So, 23.06. 23:30 0.0 l/m2 in 30 Min -
So, 23.06. 23:20 keine Meldung -
So, 23.06. 23:10 keine Meldung -
So, 23.06. 23:00 0.0 l/m2 in 1 Std. -
So, 23.06. 22:30 0.0 l/m2 in 30 Min -
So, 23.06. 22:00 0.0 l/m2 in 1 Std. -
So, 23.06. 21:30 0.0 l/m2 in 30 Min -
So, 23.06. 21:00 0.0 l/m2 in 1 Std. -
Ortszeit Stärke Spitze Richtung
km/h Bft. km/h Grad Sektor
So, 23.06. 20:00 19 3 28 280° W
So, 23.06. 14:00 20 4 33 270° W
So, 23.06. 8:00 24 4 41 280° W
So, 23.06. 2:00 33 5 43 280° W
Sa, 22.06. 20:00 29 5 43 280° W
Sa, 22.06. 14:00 29 5 54 280° W
Sa, 22.06. 8:00 43 6 54 260° W
Sa, 22.06. 2:00 13 3 35 120° SO
Ortszeit Stärke Spitze Richtung
km/h Bft. km/h Grad Sektor
Mo, 24.06. 0:00 22 4 25 290° W
So, 23.06. 23:50 22 4 - 290° W
So, 23.06. 23:40 22 4 - 290° W
So, 23.06. 23:30 22 4 25 290° W
So, 23.06. 23:20 22 4 - 290° W
So, 23.06. 23:10 22 4 - 290° W
So, 23.06. 23:00 20 4 26 290° W
So, 23.06. 22:30 18 3 25 290° W
So, 23.06. 22:00 22 4 25 290° W
So, 23.06. 21:30 22 4 25 290° W
So, 23.06. 21:00 24 4 28 290° W
Ortszeit Untergrenze Bedeckung Gattung
total tief tief mittel hoch
So, 23.06. 20:00 9000 m 2/8 0/8 - - -
So, 23.06. 14:00 9000 m 7/8 0/8 - - -
So, 23.06. 8:00 300 m 8/8 8/8 - - -
So, 23.06. 2:00 480 m 2/8 2/8 - - -
Sa, 22.06. 20:00 1050 m 4/8 4/8 - - -
Sa, 22.06. 14:00 690 m 8/8 7/8 - - -
Sa, 22.06. 8:00 330 m 8/8 8/8 - - -
Sa, 22.06. 2:00 300 m 7/8 7/8 - - -
Ortszeit Bedeckungsgrad in Achtel und Wolkenuntergrenze
Mo, 24.06. 0:00 2(7500m)
So, 23.06. 23:50 2(7500m)
So, 23.06. 23:40 3
So, 23.06. 23:30 4(7500m)
So, 23.06. 23:20 4(7500m)
So, 23.06. 23:10 1
So, 23.06. 23:00 3(7800m)
So, 23.06. 22:30 4(8400m)
So, 23.06. 22:00 3(5700m) 3(8400m)
So, 23.06. 21:30 8(5700m)
So, 23.06. 21:00 3(5700m) 6(8400m)
Ortszeit Luftdruck NN (hPa) Tendenz (hPa in 3 Std.)
So, 23.06. 20:00 1019 + 0,5
So, 23.06. 14:00 1018 + 0,8
So, 23.06. 8:00 1016 + 1,1
So, 23.06. 2:00 1013 + 0,8
Sa, 22.06. 20:00 1011 + 1,1
Sa, 22.06. 14:00 1008 + 2,0
Sa, 22.06. 8:00 1006 + 0,7
Sa, 22.06. 2:00 1006 - 1,3
Ortszeit Luftdruck NN (hPa) Tendenz (hPa in 3 Std.)
Mo, 24.06. 0:00 1020 + 0,7
So, 23.06. 23:50 1020 keine Meldung
So, 23.06. 23:40 1020 keine Meldung
So, 23.06. 23:30 1020 + 0,6
So, 23.06. 23:20 1020 keine Meldung
So, 23.06. 23:10 1020 keine Meldung
So, 23.06. 23:00 1020 + 0,6
So, 23.06. 22:30 1019 + 0,7
So, 23.06. 22:00 1019 + 0,7
So, 23.06. 21:30 1019 + 0,6
So, 23.06. 21:00 1019 + 0,5
Ortszeit Schneehöhe (cm)
So, 23.06. 20:00 0
So, 23.06. 14:00 0
So, 23.06. 8:00 0
So, 23.06. 2:00 0
Sa, 22.06. 20:00 0
Sa, 22.06. 14:00 0
Sa, 22.06. 8:00 0
Sa, 22.06. 2:00 0
Ortszeit Schneehöhe (cm)
Mo, 24.06. 0:00 0
So, 23.06. 23:50 0
So, 23.06. 23:40 -
So, 23.06. 23:30 0
So, 23.06. 23:20 0
So, 23.06. 23:10 -
So, 23.06. 23:00 0
So, 23.06. 22:30 0
So, 23.06. 22:00 0
So, 23.06. 21:30 0
So, 23.06. 21:00 0
Link zu dieser Seite / Seite empfehlen

Das Wetter in ...